WetterOnline ( https://www.wetteronline.de )

Wetter aktuell Bichlbach

Aktuelles Wetter: Garmisch-Partenkirchen (719m)

6-stündlich | Neueste Meldungen
Ortszeit Temperatur Wetter
Mi, 19.06. 20:00 24.6° C wolkenlos
Mi, 19.06. 14:00 27.4° C leicht bewölkt
Mi, 19.06. 8:00 15.2° C bewölkt
Mi, 19.06. 2:00 14.0° C wolkig
Di, 18.06. 20:00 24.3° C wolkig
Di, 18.06. 14:00 27.0° C wolkenlos
Di, 18.06. 8:00 18.0° C wolkenlos
Di, 18.06. 2:00 14.5° C wolkig
Ortszeit Temperatur Wetter
Mi, 19.06. 23:00 16.9° C leicht bewölkt
Mi, 19.06. 22:50 16.9° C leicht bewölkt
Mi, 19.06. 22:40 16.5° C fast wolkenlos
Mi, 19.06. 22:30 17.0° C wolkenlos
Mi, 19.06. 22:20 17.0° C wolkenlos
Mi, 19.06. 22:10 17.6° C leicht bewölkt
Mi, 19.06. 22:00 17.6° C bewölkt
Mi, 19.06. 21:30 19.3° C leicht bewölkt
Mi, 19.06. 21:00 20.2° C wolkenlos
Mi, 19.06. 20:30 21.3° C wolkenlos
Mi, 19.06. 20:00 24.6° C wolkenlos
Ortszeit Relative Feuchte Sichtweite
Mi, 19.06. 20:00 47% >70 km
Mi, 19.06. 14:00 30% >70 km
Mi, 19.06. 8:00 95% 30 km
Mi, 19.06. 2:00 97% 14 km
Di, 18.06. 20:00 45% >70 km
Di, 18.06. 14:00 44% >70 km
Di, 18.06. 8:00 74% 65 km
Di, 18.06. 2:00 93% 40 km
Ortszeit Relative Feuchte Sichtweite
Mi, 19.06. 23:00 79% >70 km
Mi, 19.06. 22:50 79% -
Mi, 19.06. 22:40 80% -
Mi, 19.06. 22:30 80% 55 km
Mi, 19.06. 22:20 80% -
Mi, 19.06. 22:10 75% -
Mi, 19.06. 22:00 75% 55 km
Mi, 19.06. 21:30 69% >70 km
Mi, 19.06. 21:00 64% >70 km
Mi, 19.06. 20:30 62% 65 km
Mi, 19.06. 20:00 47% >70 km
Ortszeit Niederschlagsmenge Niederschlagsart
Mi, 19.06. 20:00 0.0 l/m2 in 12 Std. -
Mi, 19.06. 14:00 0.0 l/m2 in 6 Std. -
Mi, 19.06. 8:00 8 l/m2 in 12 Std. Regen
Mi, 19.06. 2:00 8 l/m2 in 6 Std. Regen
Di, 18.06. 20:00 0.0 l/m2 in 12 Std. -
Di, 18.06. 14:00 0.0 l/m2 in 6 Std. -
Di, 18.06. 8:00 0.0 l/m2 in 12 Std. -
Di, 18.06. 2:00 0.0 l/m2 in 6 Std. -
Ortszeit Niederschlagsmenge Niederschlagsart
Mi, 19.06. 23:00 0.0 l/m2 in 1 Std. -
Mi, 19.06. 22:50 keine Meldung -
Mi, 19.06. 22:40 keine Meldung -
Mi, 19.06. 22:30 0.0 l/m2 in 1 Std. -
Mi, 19.06. 22:20 keine Meldung -
Mi, 19.06. 22:10 keine Meldung -
Mi, 19.06. 22:00 0.0 l/m2 in 1 Std. -
Mi, 19.06. 21:30 0.0 l/m2 in 1 Std. -
Mi, 19.06. 21:00 0.0 l/m2 in 1 Std. -
Mi, 19.06. 20:30 0.0 l/m2 in 1 Std. -
Mi, 19.06. 20:00 0.0 l/m2 in 1 Std. -
Ortszeit Stärke Spitze Richtung
km/h Bft. km/h Grad Sektor
Mi, 19.06. 20:00 4 1 25 340° N
Mi, 19.06. 14:00 11 2 29 40° NO
Mi, 19.06. 8:00 2 1 11 310° NW
Mi, 19.06. 2:00 7 2 47 240° SW
Di, 18.06. 20:00 7 2 33 30° NO
Di, 18.06. 14:00 17 3 35 50° NO
Di, 18.06. 8:00 4 1 7 140° SO
Di, 18.06. 2:00 4 1 18 250° W
Ortszeit Stärke Spitze Richtung
km/h Bft. km/h Grad Sektor
Mi, 19.06. 23:00 4 1 11 240° SW
Mi, 19.06. 22:50 4 1 - 240° SW
Mi, 19.06. 22:40 6 1 - 220° SW
Mi, 19.06. 22:30 4 1 7 250° W
Mi, 19.06. 22:20 4 1 - 250° W
Mi, 19.06. 22:10 2 1 - 240° SW
Mi, 19.06. 22:00 2 1 7 260° W
Mi, 19.06. 21:30 4 1 7 250° W
Mi, 19.06. 21:00 2 1 6 350° N
Mi, 19.06. 20:30 2 1 6 290° W
Mi, 19.06. 20:00 4 1 7 340° N
Ortszeit Untergrenze Bedeckung Gattung
total tief tief mittel hoch
Mi, 19.06. 20:00 - 0/8 0/8 - - -
Mi, 19.06. 14:00 3000 m 2/8 2/8 - - -
Mi, 19.06. 8:00 2700 m 7/8 7/8 - - -
Mi, 19.06. 2:00 90 m 8/8 1/8 - - -
Di, 18.06. 20:00 2100 m 7/8 2/8 - - -
Di, 18.06. 14:00 - 0/8 0/8 - - -
Di, 18.06. 8:00 - 0/8 0/8 - - -
Di, 18.06. 2:00 7800 m 8/8 0/8 - - -
Ortszeit Bedeckungsgrad in Achtel und Wolkenuntergrenze
Mi, 19.06. 23:00 5(10500m)
Mi, 19.06. 22:50 5(10500m)
Mi, 19.06. 22:40 1(10500m)
Mi, 19.06. 22:30 keine Wolken
Mi, 19.06. 22:20 keine Wolken
Mi, 19.06. 22:10 2(4800m) 2(5700m)
Mi, 19.06. 22:00 5(4800m) 7(6000m)
Mi, 19.06. 21:30 4(7500m) 4(6600m) 7(7500m)
Mi, 19.06. 21:00 keine Wolken
Mi, 19.06. 20:30 keine Wolken
Mi, 19.06. 20:00 keine Wolken
Ortszeit Luftdruck NN (hPa) Tendenz (hPa in 3 Std.)
Mi, 19.06. 20:00 1008 - 0,1
Mi, 19.06. 14:00 1009 - 0,6
Mi, 19.06. 8:00 1014 - 0,6
Mi, 19.06. 2:00 1017 + 0,4
Di, 18.06. 20:00 1011 + 0,4
Di, 18.06. 14:00 1011 - 1,1
Di, 18.06. 8:00 1016 + 0,5
Di, 18.06. 2:00 1017 - 0,2
Ortszeit Luftdruck NN (hPa) Tendenz (hPa in 3 Std.)
Mi, 19.06. 23:00 1011 + 1,1
Mi, 19.06. 22:50 1011 keine Meldung
Mi, 19.06. 22:40 1011 keine Meldung
Mi, 19.06. 22:30 1011 + 0,8
Mi, 19.06. 22:20 1011 keine Meldung
Mi, 19.06. 22:10 1011 keine Meldung
Mi, 19.06. 22:00 1011 + 0,7
Mi, 19.06. 21:30 1010 + 0,5
Mi, 19.06. 21:00 1009 + 0,3
Mi, 19.06. 20:30 1009 + 0,1
Mi, 19.06. 20:00 1008 - 0,1
Ortszeit Schneehöhe (cm)
Mi, 19.06. 20:00 -
Mi, 19.06. 14:00 -
Mi, 19.06. 8:00 -
Mi, 19.06. 2:00 -
Di, 18.06. 20:00 -
Di, 18.06. 14:00 -
Di, 18.06. 8:00 -
Di, 18.06. 2:00 -
Ortszeit Schneehöhe (cm)
Mi, 19.06. 23:00 -
Mi, 19.06. 22:50 -
Mi, 19.06. 22:40 -
Mi, 19.06. 22:30 -
Mi, 19.06. 22:20 -
Mi, 19.06. 22:10 -
Mi, 19.06. 22:00 -
Mi, 19.06. 21:30 -
Mi, 19.06. 21:00 -
Mi, 19.06. 20:30 -
Mi, 19.06. 20:00 -
Link zu dieser Seite / Seite empfehlen

Das Wetter in ...